createdAt,value
2024-03-01T00:00:52.061Z,3.70
2024-03-01T00:03:18.869Z,4.50
2024-03-01T00:05:45.533Z,4.80
2024-03-01T00:08:12.202Z,3.80
2024-03-01T00:10:38.924Z,4.20
2024-03-01T00:13:05.606Z,2.83
2024-03-01T00:15:32.429Z,3.20
2024-03-01T00:17:59.146Z,2.78
2024-03-01T00:20:25.828Z,4.72
2024-03-01T00:22:53.833Z,2.92
2024-03-01T00:25:21.023Z,3.13
2024-03-01T00:27:47.769Z,3.45
2024-03-01T00:30:14.569Z,3.53
2024-03-01T00:32:41.533Z,3.25
2024-03-01T00:35:08.606Z,3.47
2024-03-01T00:37:35.294Z,3.53
2024-03-01T00:40:02.317Z,3.35
2024-03-01T00:42:29.033Z,4.15
2024-03-01T00:44:55.742Z,4.72
2024-03-01T00:47:22.520Z,3.70
2024-03-01T00:49:49.696Z,4.07
2024-03-01T00:52:16.463Z,4.47
2024-03-01T00:54:43.177Z,2.72
2024-03-01T00:57:11.907Z,4.38
2024-03-01T00:59:38.884Z,3.97
2024-03-01T01:02:08.484Z,2.78
2024-03-01T01:04:35.684Z,4.45
2024-03-01T01:07:02.496Z,3.35
2024-03-01T01:09:31.626Z,4.53
2024-03-01T01:12:01.134Z,3.65
2024-03-01T01:14:27.843Z,3.63
2024-03-01T01:16:54.609Z,4.30
2024-03-01T01:19:21.364Z,3.88
2024-03-01T01:21:48.101Z,4.03
2024-03-01T01:24:14.811Z,4.22
2024-03-01T01:26:41.635Z,3.47
2024-03-01T01:29:08.384Z,3.22
2024-03-01T01:31:35.194Z,3.90
2024-03-01T01:34:02.205Z,4.18
2024-03-01T01:36:28.938Z,3.90
2024-03-01T01:38:55.945Z,2.60
2024-03-01T01:41:22.743Z,3.03
2024-03-01T01:43:49.494Z,3.83
2024-03-01T01:46:17.358Z,3.20
2024-03-01T01:48:44.893Z,3.60
2024-03-01T01:51:16.109Z,3.10
2024-03-01T01:53:43.907Z,2.92
2024-03-01T01:56:14.592Z,3.63
2024-03-01T01:58:44.082Z,3.60
2024-03-01T02:01:11.032Z,2.58
2024-03-01T02:03:40.086Z,3.53
2024-03-01T02:06:07.836Z,3.47
2024-03-01T02:08:36.272Z,3.63
2024-03-01T02:11:04.017Z,2.22
2024-03-01T02:13:30.888Z,4.15
2024-03-01T02:15:57.690Z,2.67
2024-03-01T02:18:24.971Z,3.45
2024-03-01T02:21:02.041Z,2.78
2024-03-01T02:23:29.026Z,3.15
2024-03-01T02:25:56.063Z,4.72
2024-03-01T02:28:22.840Z,4.00
2024-03-01T02:30:52.743Z,3.78
2024-03-01T02:33:22.342Z,3.72
2024-03-01T02:35:49.599Z,4.05
2024-03-01T02:38:16.601Z,4.30
2024-03-01T02:40:44.376Z,5.68
2024-03-01T02:43:11.300Z,4.20
2024-03-01T02:45:38.306Z,4.55
2024-03-01T02:48:06.690Z,5.35
2024-03-01T02:50:33.477Z,4.25
2024-03-01T02:53:00.159Z,3.78
2024-03-01T02:55:26.836Z,3.50
2024-03-01T02:57:54.744Z,4.18
2024-03-01T03:00:22.342Z,5.15
2024-03-01T03:02:49.502Z,3.72
2024-03-01T03:05:16.310Z,4.38
2024-03-01T03:07:43.190Z,4.07
2024-03-01T03:10:10.214Z,4.38
2024-03-01T03:12:36.982Z,3.53
2024-03-01T03:15:08.665Z,3.25
2024-03-01T03:17:36.445Z,3.15
2024-03-01T03:20:11.077Z,2.80
2024-03-01T03:22:39.850Z,2.63
2024-03-01T03:25:07.502Z,3.75
2024-03-01T03:27:34.301Z,2.67
2024-03-01T03:30:01.121Z,4.70
2024-03-01T03:32:27.863Z,3.20
2024-03-01T03:34:54.674Z,2.90
2024-03-01T03:37:22.112Z,3.40
2024-03-01T03:39:49.012Z,2.83
2024-03-01T03:42:15.809Z,3.83
2024-03-01T03:44:42.512Z,3.95
2024-03-01T03:47:09.214Z,3.58
2024-03-01T03:49:37.477Z,3.15
2024-03-01T03:52:05.209Z,3.85
2024-03-01T03:54:32.905Z,3.70
2024-03-01T03:56:59.686Z,3.97
2024-03-01T03:59:26.464Z,3.65
2024-03-01T04:01:53.254Z,3.47
2024-03-01T04:04:20.065Z,3.28
2024-03-01T04:06:49.714Z,3.78
2024-03-01T04:09:16.709Z,3.22
2024-03-01T04:11:43.642Z,3.35
2024-03-01T04:14:11.264Z,3.15
2024-03-01T04:16:38.506Z,4.13
2024-03-01T04:19:10.000Z,3.83
2024-03-01T04:21:38.037Z,4.25
2024-03-01T04:24:13.672Z,4.35
2024-03-01T04:26:40.808Z,2.90
2024-03-01T04:29:07.793Z,1.88
2024-03-01T04:31:34.792Z,3.58
2024-03-01T04:34:02.177Z,3.22
2024-03-01T04:36:29.197Z,4.28
2024-03-01T04:38:55.953Z,3.60
2024-03-01T04:41:22.667Z,3.30
2024-03-01T04:43:49.348Z,3.20
2024-03-01T04:46:16.296Z,3.47
2024-03-01T04:48:43.040Z,4.05
2024-03-01T04:51:11.102Z,4.35
2024-03-01T04:53:37.758Z,4.07
2024-03-01T04:56:04.703Z,3.92
2024-03-01T04:58:31.448Z,3.95
2024-03-01T05:01:01.378Z,3.58
2024-03-01T05:03:30.917Z,2.85
2024-03-01T05:06:00.536Z,2.88
2024-03-01T05:08:28.995Z,3.95
2024-03-01T05:10:55.849Z,3.38
2024-03-01T05:13:23.122Z,4.05
2024-03-01T05:15:50.519Z,5.25
2024-03-01T05:18:18.946Z,4.13
2024-03-01T05:20:46.144Z,3.75
2024-03-01T05:23:13.210Z,4.10
2024-03-01T05:25:40.646Z,4.05
2024-03-01T05:28:07.374Z,3.67
2024-03-01T05:30:46.843Z,4.07
2024-03-01T05:33:17.146Z,5.10
2024-03-01T05:35:45.026Z,5.03
2024-03-01T05:38:11.878Z,4.32
2024-03-01T05:40:46.441Z,6.90
2024-03-01T05:43:21.701Z,3.42
2024-03-01T05:45:48.646Z,3.63
2024-03-01T05:48:17.532Z,4.70
2024-03-01T05:50:44.862Z,4.75
2024-03-01T05:53:16.394Z,3.03
2024-03-01T05:55:44.369Z,4.80
2024-03-01T05:58:11.982Z,4.10
2024-03-01T06:00:44.346Z,4.57
2024-03-01T06:03:11.429Z,3.95
2024-03-01T06:05:38.309Z,4.38
2024-03-01T06:08:05.492Z,4.13
2024-03-01T06:10:32.352Z,3.55
2024-03-01T06:12:59.613Z,3.92
2024-03-01T06:15:27.512Z,4.25
2024-03-01T06:17:54.344Z,3.70
2024-03-01T06:20:21.294Z,4.00
2024-03-01T06:22:48.024Z,3.75
2024-03-01T06:25:14.925Z,5.20
2024-03-01T06:27:41.639Z,3.20
2024-03-01T06:30:08.634Z,4.90
2024-03-01T06:32:36.069Z,3.90
2024-03-01T06:35:03.048Z,4.90
2024-03-01T06:37:29.885Z,3.83
2024-03-01T06:39:56.883Z,4.95
2024-03-01T06:42:23.968Z,4.45
2024-03-01T06:44:50.652Z,3.78
2024-03-01T06:47:20.352Z,3.47
2024-03-01T06:49:49.301Z,4.22
2024-03-01T06:52:16.887Z,4.13
2024-03-01T06:54:46.440Z,4.85
2024-03-01T06:57:13.210Z,5.78
2024-03-01T06:59:40.202Z,4.07
2024-03-01T07:02:07.528Z,4.40
2024-03-01T07:04:34.475Z,4.13
2024-03-01T07:07:01.272Z,5.75
2024-03-01T07:09:28.068Z,4.63
2024-03-01T07:11:54.715Z,5.45
2024-03-01T07:14:21.473Z,4.40
2024-03-01T07:16:48.108Z,4.97
2024-03-01T07:19:14.837Z,4.13
2024-03-01T07:21:42.066Z,4.38
2024-03-01T07:24:08.888Z,4.28
2024-03-01T07:26:35.556Z,4.32
2024-03-01T07:29:03.329Z,4.05
2024-03-01T07:31:30.076Z,3.80
2024-03-01T07:33:57.278Z,5.18
2024-03-01T07:36:24.204Z,6.07
2024-03-01T07:38:50.923Z,3.88
2024-03-01T07:41:19.800Z,4.35
2024-03-01T07:43:47.551Z,5.07
2024-03-01T07:46:15.095Z,3.95
2024-03-01T07:48:46.812Z,5.20
2024-03-01T07:51:14.266Z,5.20
2024-03-01T07:53:44.572Z,4.30
2024-03-01T07:56:12.047Z,3.92
2024-03-01T07:58:39.124Z,4.73
2024-03-01T08:01:06.516Z,4.60
2024-03-01T08:03:36.318Z,4.97
2024-03-01T08:06:03.167Z,5.15
2024-03-01T08:08:42.807Z,5.45
2024-03-01T08:11:10.728Z,4.82
2024-03-01T08:13:38.631Z,4.38
2024-03-01T08:16:09.661Z,4.53
2024-03-01T08:18:39.248Z,4.22
2024-03-01T08:21:09.440Z,4.13
2024-03-01T08:23:41.481Z,4.57
2024-03-01T08:26:13.437Z,5.63
2024-03-01T08:28:43.928Z,4.85
2024-03-01T08:31:34.546Z,3.30
2024-03-01T08:34:19.469Z,3.40
2024-03-01T08:36:46.653Z,4.60
2024-03-01T08:39:20.879Z,4.15
2024-03-01T08:41:49.742Z,4.60
2024-03-01T08:44:56.587Z,4.15
2024-03-01T08:47:33.039Z,2.92
2024-03-01T08:49:59.711Z,4.68
2024-03-01T08:52:37.007Z,4.22
2024-03-01T08:55:19.383Z,3.93
2024-03-01T08:57:47.174Z,4.55
2024-03-01T09:00:50.380Z,4.88
2024-03-01T09:03:25.471Z,4.72
2024-03-01T09:05:57.145Z,5.28
2024-03-01T09:08:28.106Z,4.00
2024-03-01T09:10:56.127Z,5.25
2024-03-01T09:13:25.044Z,3.28
2024-03-01T09:15:52.658Z,5.10
2024-03-01T09:18:42.729Z,4.33
2024-03-01T09:21:32.323Z,4.57
2024-03-01T09:23:59.809Z,3.55
2024-03-01T09:26:26.850Z,4.65
2024-03-01T09:29:00.141Z,4.78
2024-03-01T09:31:26.945Z,4.65
2024-03-01T09:33:53.687Z,4.00
2024-03-01T09:36:20.984Z,4.03
2024-03-01T09:38:55.170Z,4.78
2024-03-01T09:41:33.652Z,5.28
2024-03-01T09:46:59.816Z,4.50
2024-03-01T09:49:56.235Z,4.53
2024-03-01T09:53:00.875Z,3.83
2024-03-01T09:55:42.315Z,5.93
2024-03-01T09:58:44.195Z,4.15
2024-03-01T10:01:35.550Z,4.43
2024-03-01T10:04:35.061Z,3.78
2024-03-01T10:07:23.909Z,4.05
2024-03-01T10:10:18.273Z,2.75
2024-03-01T10:13:09.449Z,4.88
2024-03-01T10:15:58.808Z,4.10
2024-03-01T10:18:47.403Z,4.50
2024-03-01T10:21:23.248Z,4.65
2024-03-01T10:24:09.044Z,4.70
2024-03-01T10:26:39.428Z,4.20
2024-03-01T10:29:06.005Z,3.70
2024-03-01T10:31:49.303Z,4.47
2024-03-01T10:34:49.676Z,4.18
2024-03-01T10:38:04.089Z,4.68
2024-03-01T10:40:36.642Z,4.68
2024-03-01T10:43:23.863Z,4.22
2024-03-01T10:46:12.149Z,4.50
2024-03-01T10:51:24.907Z,3.35
2024-03-01T10:53:57.390Z,4.20
2024-03-01T10:56:24.384Z,3.10
2024-03-01T10:59:10.335Z,4.38
2024-03-01T11:01:56.679Z,3.20
2024-03-01T11:04:30.636Z,3.53
2024-03-01T11:07:07.471Z,3.70
2024-03-01T11:10:03.451Z,4.65
2024-03-01T11:12:44.647Z,4.97
2024-03-01T11:15:15.211Z,4.25
2024-03-01T11:17:46.526Z,3.67
2024-03-01T11:20:23.142Z,3.45
2024-03-01T11:23:02.501Z,4.07
2024-03-01T11:25:44.471Z,4.65
2024-03-01T11:28:14.849Z,5.45
2024-03-01T11:30:47.133Z,5.55
2024-03-01T11:33:16.496Z,4.28
2024-03-01T11:35:58.501Z,4.80
2024-03-01T11:38:59.132Z,4.50
2024-03-01T11:41:47.183Z,5.40
2024-03-01T11:44:28.131Z,5.63
2024-03-01T11:47:10.546Z,5.97
2024-03-01T11:50:30.188Z,5.30
2024-03-01T11:53:16.484Z,4.95
2024-03-01T11:55:52.885Z,7.00
2024-03-01T11:58:38.135Z,6.72
2024-03-01T12:01:20.065Z,5.43
2024-03-01T12:03:56.675Z,6.15
2024-03-01T12:06:54.056Z,6.85
2024-03-01T12:09:33.470Z,8.38
2024-03-01T12:12:16.410Z,7.43
2024-03-01T12:14:57.420Z,7.10
2024-03-01T12:17:44.070Z,9.45
2024-03-01T12:20:15.603Z,10.18
2024-03-01T12:23:38.387Z,9.90
2024-03-01T12:26:09.005Z,10.02
2024-03-01T12:29:08.936Z,8.43
2024-03-01T12:31:53.975Z,8.43
2024-03-01T12:34:20.813Z,7.20
2024-03-01T12:37:03.938Z,7.72
2024-03-01T12:39:31.822Z,8.10
2024-03-01T12:42:07.436Z,8.75
2024-03-01T12:45:09.623Z,9.57
2024-03-01T12:47:51.520Z,8.43
2024-03-01T12:50:34.749Z,8.13
2024-03-01T12:53:24.651Z,8.80
2024-03-01T12:55:54.614Z,8.00
2024-03-01T12:58:27.810Z,8.13
2024-03-01T13:01:22.083Z,8.43
2024-03-01T13:04:19.912Z,8.63
2024-03-01T13:06:49.669Z,8.68
2024-03-01T13:09:31.549Z,8.27
2024-03-01T13:12:02.151Z,9.25
2024-03-01T13:14:40.803Z,9.35
2024-03-01T13:17:29.370Z,9.02
2024-03-01T13:20:31.303Z,9.05
2024-03-01T13:23:29.596Z,7.35
2024-03-01T13:26:19.634Z,7.80
2024-03-01T13:28:58.878Z,9.00
2024-03-01T13:31:31.393Z,7.43
2024-03-01T13:34:02.435Z,8.50
2024-03-01T13:36:31.645Z,8.77
2024-03-01T13:39:21.264Z,8.02
2024-03-01T13:41:56.665Z,8.57
2024-03-01T13:44:39.142Z,7.95
2024-03-01T13:47:11.696Z,9.68
2024-03-01T13:49:40.596Z,9.02
2024-03-01T13:52:10.200Z,8.88
2024-03-01T13:54:38.263Z,8.75
2024-03-01T13:57:09.051Z,9.38
2024-03-01T13:59:37.073Z,8.88
2024-03-01T14:02:07.620Z,8.88
2024-03-01T14:04:34.596Z,8.65
2024-03-01T14:07:01.469Z,8.10
2024-03-01T14:09:28.151Z,7.75
2024-03-01T14:11:54.950Z,8.15
2024-03-01T14:14:21.747Z,8.30
2024-03-01T14:16:48.687Z,10.55
2024-03-01T14:19:18.846Z,8.48
2024-03-01T14:21:45.762Z,8.63
2024-03-01T14:24:13.700Z,8.63
2024-03-01T14:26:40.631Z,8.38
2024-03-01T14:29:08.684Z,8.07
2024-03-01T14:31:38.327Z,10.05
2024-03-01T14:34:05.494Z,8.32
2024-03-01T14:36:44.378Z,8.30
2024-03-01T14:39:11.114Z,9.52
2024-03-01T14:41:41.613Z,9.55
2024-03-01T14:44:09.287Z,9.35
2024-03-01T14:46:41.048Z,8.57
2024-03-01T14:49:19.199Z,8.30
2024-03-01T14:51:48.056Z,8.75
2024-03-01T14:54:19.318Z,8.73
2024-03-01T14:56:46.920Z,9.85
2024-03-01T14:59:14.187Z,8.70
2024-03-01T15:01:41.581Z,9.05
2024-03-01T15:04:13.324Z,9.75
2024-03-01T15:06:40.592Z,9.15
2024-03-01T15:09:07.640Z,8.68
2024-03-01T15:11:38.027Z,7.95
2024-03-01T15:14:11.076Z,9.75
2024-03-01T15:16:38.910Z,8.90
2024-03-01T15:19:14.404Z,8.73
2024-03-01T15:21:41.104Z,10.63
2024-03-01T15:24:08.184Z,9.75
2024-03-01T15:26:45.701Z,9.40
2024-03-01T15:29:12.964Z,8.93
2024-03-01T15:31:40.095Z,9.30
2024-03-01T15:34:07.438Z,8.77
2024-03-01T15:36:34.176Z,9.63
2024-03-01T15:39:01.078Z,7.28
2024-03-01T15:41:27.760Z,11.50
2024-03-01T15:43:54.419Z,8.68
2024-03-01T15:46:26.731Z,8.50
2024-03-01T15:48:53.725Z,10.38
2024-03-01T15:51:22.501Z,7.82
2024-03-01T15:53:50.524Z,8.02
2024-03-01T15:56:17.394Z,8.85
2024-03-01T15:58:44.365Z,8.13
2024-03-01T16:01:13.203Z,8.85
2024-03-01T16:03:40.418Z,8.48
2024-03-01T16:06:07.512Z,7.88
2024-03-01T16:08:34.381Z,8.50
2024-03-01T16:11:03.337Z,7.72
2024-03-01T16:13:35.841Z,7.80
2024-03-01T16:16:06.273Z,8.48
2024-03-01T16:18:38.321Z,7.75
2024-03-01T16:21:07.797Z,8.40
2024-03-01T16:23:39.550Z,7.88
2024-03-01T16:26:15.413Z,9.98
2024-03-01T16:28:43.832Z,7.85
2024-03-01T16:33:37.631Z,9.80
2024-03-01T16:36:06.227Z,8.82
2024-03-01T16:38:38.271Z,8.05
2024-03-01T16:41:15.332Z,10.23
2024-03-01T16:43:45.692Z,9.23
2024-03-01T16:46:22.680Z,8.43
2024-03-01T16:48:53.711Z,8.32
2024-03-01T16:51:41.650Z,9.10
2024-03-01T16:54:32.882Z,8.43
2024-03-01T16:57:06.264Z,7.75
2024-03-01T16:59:33.085Z,10.07
2024-03-01T17:02:00.042Z,9.48
2024-03-01T17:04:30.614Z,9.25
2024-03-01T17:07:00.689Z,10.23
2024-03-01T17:09:30.521Z,8.30
2024-03-01T17:11:57.577Z,9.05
2024-03-01T17:14:25.604Z,7.53
2024-03-01T17:16:56.811Z,9.07
2024-03-01T17:19:28.223Z,9.05
2024-03-01T17:21:59.377Z,9.50
2024-03-01T17:24:26.080Z,8.52
2024-03-01T17:26:53.017Z,7.57
2024-03-01T17:29:19.749Z,8.50
2024-03-01T17:31:46.406Z,9.70
2024-03-01T17:34:13.140Z,9.25
2024-03-01T17:36:39.950Z,8.32
2024-03-01T17:39:06.813Z,9.32
2024-03-01T17:41:33.557Z,10.05
2024-03-01T17:44:00.913Z,10.75
2024-03-01T17:46:29.488Z,11.10
2024-03-01T17:48:57.478Z,12.05
2024-03-01T17:51:24.271Z,11.50
2024-03-01T17:53:51.071Z,9.77
2024-03-01T17:56:18.070Z,9.45
2024-03-01T17:58:44.843Z,12.80
2024-03-01T18:01:11.893Z,9.77
2024-03-01T18:03:40.978Z,10.63
2024-03-01T18:06:08.234Z,12.25
2024-03-01T18:08:35.119Z,11.52
2024-03-01T18:11:02.303Z,11.57
2024-03-01T18:13:30.494Z,11.05
2024-03-01T18:15:58.236Z,12.02
2024-03-01T18:18:25.501Z,12.15
2024-03-01T18:20:52.470Z,10.45
2024-03-01T18:23:19.257Z,10.98
2024-03-01T18:25:46.420Z,10.02
2024-03-01T18:28:13.326Z,10.00
2024-03-01T18:30:40.361Z,9.57
2024-03-01T18:33:07.105Z,10.95
2024-03-01T18:35:34.049Z,11.27
2024-03-01T18:38:00.949Z,11.90
2024-03-01T18:40:27.726Z,10.82
2024-03-01T18:42:54.867Z,9.55
2024-03-01T18:45:21.805Z,11.23
2024-03-01T18:47:48.622Z,10.85
2024-03-01T18:50:15.350Z,12.30
2024-03-01T18:52:42.087Z,10.35
2024-03-01T18:55:09.107Z,10.60
2024-03-01T18:57:37.784Z,12.15
2024-03-01T19:00:05.636Z,13.05
2024-03-01T19:02:32.622Z,10.98
2024-03-01T19:04:59.996Z,9.85
2024-03-01T19:07:27.475Z,10.68
2024-03-01T19:09:54.288Z,11.70
2024-03-01T19:12:22.100Z,11.10
2024-03-01T19:14:48.744Z,12.77
2024-03-01T19:17:15.447Z,9.88
2024-03-01T19:19:42.450Z,10.20
2024-03-01T19:22:09.435Z,11.82
2024-03-01T19:24:37.264Z,12.02
2024-03-01T19:27:04.130Z,8.35
2024-03-01T19:29:34.885Z,9.13
2024-03-01T19:32:02.725Z,10.52
2024-03-01T19:34:30.252Z,9.55
2024-03-01T19:36:57.069Z,11.53
2024-03-01T19:39:23.914Z,12.20
2024-03-01T19:41:53.324Z,12.35
2024-03-01T19:44:20.662Z,11.05
2024-03-01T19:46:47.373Z,11.70
2024-03-01T19:49:14.047Z,10.38
2024-03-01T19:51:41.352Z,10.00
2024-03-01T19:54:08.473Z,11.52
2024-03-01T19:56:35.347Z,10.50
2024-03-01T19:59:03.773Z,9.57
2024-03-01T20:01:31.754Z,12.02
2024-03-01T20:03:59.542Z,10.18
2024-03-01T20:06:28.591Z,9.37
2024-03-01T20:08:55.797Z,12.65
2024-03-01T20:11:23.266Z,11.60
2024-03-01T20:13:50.086Z,11.60
2024-03-01T20:16:16.895Z,11.23
2024-03-01T20:18:43.723Z,11.32
2024-03-01T20:21:11.533Z,11.35
2024-03-01T20:23:45.696Z,10.85
2024-03-01T20:26:17.247Z,13.40
2024-03-01T20:28:44.250Z,11.27
2024-03-01T20:31:11.816Z,11.55
2024-03-01T20:33:38.621Z,12.27
2024-03-01T20:36:05.562Z,11.45
2024-03-01T20:38:33.844Z,10.80
2024-03-01T20:41:00.827Z,11.30
2024-03-01T20:43:27.654Z,10.55
2024-03-01T20:45:54.430Z,9.68
2024-03-01T20:48:21.259Z,10.18
2024-03-01T20:50:48.094Z,10.25
2024-03-01T20:53:14.876Z,9.20
2024-03-01T20:55:42.148Z,11.52
2024-03-01T20:58:09.052Z,10.55
2024-03-01T21:00:35.766Z,10.40
2024-03-01T21:03:02.528Z,10.57
2024-03-01T21:05:29.245Z,13.05
2024-03-01T21:07:56.379Z,10.77
2024-03-01T21:10:24.300Z,9.55
2024-03-01T21:12:51.170Z,13.07
2024-03-01T21:15:17.945Z,12.45
2024-03-01T21:17:49.764Z,11.30
2024-03-01T21:20:17.480Z,11.45
2024-03-01T21:25:14.172Z,11.52
2024-03-01T21:27:41.983Z,12.82
2024-03-01T21:30:09.957Z,11.75
2024-03-01T21:32:38.050Z,13.57
2024-03-01T21:35:05.415Z,11.68
2024-03-01T21:37:32.308Z,13.30
2024-03-01T21:39:59.017Z,13.10
2024-03-01T21:42:25.787Z,10.75
2024-03-01T21:44:52.654Z,11.57
2024-03-01T21:47:19.728Z,11.98
2024-03-01T21:49:46.421Z,10.98
2024-03-01T21:52:13.072Z,11.65
2024-03-01T21:54:40.345Z,10.93
2024-03-01T21:57:07.089Z,11.27
2024-03-01T21:59:33.721Z,13.43
2024-03-01T22:02:02.021Z,11.68
2024-03-01T22:04:29.558Z,11.35
2024-03-01T22:06:56.237Z,9.68
2024-03-01T22:09:22.901Z,12.32
2024-03-01T22:11:49.653Z,9.10
2024-03-01T22:14:16.847Z,9.70
2024-03-01T22:16:43.549Z,9.75
2024-03-01T22:19:10.482Z,9.75
2024-03-01T22:21:37.470Z,9.85
2024-03-01T22:24:04.466Z,10.18
2024-03-01T22:26:31.163Z,10.88
2024-03-01T22:28:57.990Z,10.40
2024-03-01T22:31:25.315Z,10.57
2024-03-01T22:33:52.183Z,11.65
2024-03-01T22:36:19.011Z,10.25
2024-03-01T22:38:45.849Z,11.40
2024-03-01T22:41:13.092Z,10.93
2024-03-01T22:43:39.996Z,10.30
2024-03-01T22:46:08.780Z,9.75
2024-03-01T22:48:36.133Z,12.38
2024-03-01T22:51:04.643Z,10.60
2024-03-01T22:56:01.217Z,9.45
2024-03-01T22:58:47.978Z,10.07
2024-03-01T23:01:24.673Z,9.68
2024-03-01T23:03:53.248Z,8.90
2024-03-01T23:06:22.287Z,10.65
2024-03-01T23:09:00.524Z,10.35
2024-03-01T23:14:04.152Z,7.47
2024-03-01T23:16:31.369Z,10.20
2024-03-01T23:18:58.376Z,8.77
2024-03-01T23:21:26.169Z,9.27
2024-03-01T23:23:53.342Z,12.18
2024-03-01T23:26:20.186Z,10.00
2024-03-01T23:28:47.311Z,8.77
2024-03-01T23:31:14.082Z,12.65
